Algosea — CFN4229 — position and weather

sailwx.info

Track history (hours):
 
Tides and Currents Weather Stations Pressure Air Temp Water Temp Dewpoint Dewpoint Depression Visibility Wind Speed Wind Dir Waves Ship Positions

Algosea

Last reported at 2016-Jul-27 07:33 UTC. Time now 2016-Jul-27 07:44 UTC.
Position N 42°58' W 082°25'.

Length 144 m; draft 6.4 m.

Type: Ship (hazmat cat B). MMSI: 316006868.

Date/timePositionNaut miles runAvg speedWind from/ knotsBaromVisibWave heightAir tempDewpointWater temp
2016-Jul-27 07:33N 42°58' W 082°25'0 0.0
2016-Jul-27 06:33N 42°58' W 082°25'0 0.0
2016-Jul-27 05:33N 42°57' W 082°25'0 0.0
2016-Jul-27 04:33N 42°57' W 082°25'0 0.0
2016-Jul-27 03:33N 42°58' W 082°25'0 0.0
2016-Jul-27 02:33N 42°57' W 082°25'0 0.0
2016-Jul-27 01:33N 42°58' W 082°25'0 0.0
2016-Jul-27 00:33N 42°58' W 082°25'0 0.0
2016-Jul-26 23:33N 42°58' W 082°25'0 0.0
2016-Jul-26 22:29N 42°58' W 082°25'0 0.0
2016-Jul-26 21:32N 42°58' W 082°25'0 0.0
2016-Jul-26 20:32N 42°58' W 082°25'0 0.0
2016-Jul-26 19:33N 42°57' W 082°25'2 2.1
2016-Jul-26 18:34N 42°60' W 082°26'6 6.1
2016-Jul-26 17:32N 43°05' W 082°22'0 0.0
2016-Jul-26 14:08N 43°05' W 082°22'0 0.0
2016-Jul-26 13:32N 43°05' W 082°22'  
2016-Jul-23 22:25N 42°41' W 080°04'  
2016-Jul-17 23:20N 42°48' W 080°03'5 6.5
2016-Jul-17 22:33N 42°43' W 080°06'  
Track history (hours):
 
Tides and Currents Weather Stations Pressure Air Temp Water Temp Dewpoint Dewpoint Depression Visibility Wind Speed Wind Dir Waves Ship Positions

Algosea

Last reported at 2016-Jul-27 07:33 UTC. Time now 2016-Jul-27 07:44 UTC.
Position N 42°58' W 082°25'.

Length 144 m; draft 6.4 m.

Type: Ship (hazmat cat B). MMSI: 316006868.

Date/timePositionNaut miles runAvg speedWind from/ knotsBaromVisibWave heightAir tempDewpointWater temp
2016-Jul-27 07:33N 42°58' W 082°25'0 0.0
2016-Jul-27 06:33N 42°58' W 082°25'0 0.0
2016-Jul-27 05:33N 42°57' W 082°25'0 0.0
2016-Jul-27 04:33N 42°57' W 082°25'0 0.0
2016-Jul-27 03:33N 42°58' W 082°25'0 0.0
2016-Jul-27 02:33N 42°57' W 082°25'0 0.0
2016-Jul-27 01:33N 42°58' W 082°25'0 0.0
2016-Jul-27 00:33N 42°58' W 082°25'0 0.0
2016-Jul-26 23:33N 42°58' W 082°25'0 0.0
2016-Jul-26 22:29N 42°58' W 082°25'0 0.0
2016-Jul-26 21:32N 42°58' W 082°25'0 0.0
2016-Jul-26 20:32N 42°58' W 082°25'0 0.0
2016-Jul-26 19:33N 42°57' W 082°25'2 2.1
2016-Jul-26 18:34N 42°60' W 082°26'6 6.1
2016-Jul-26 17:32N 43°05' W 082°22'0 0.0
2016-Jul-26 14:08N 43°05' W 082°22'0 0.0
2016-Jul-26 13:32N 43°05' W 082°22'  
2016-Jul-23 22:25N 42°41' W 080°04'  
2016-Jul-17 23:20N 42°48' W 080°03'5 6.5
2016-Jul-17 22:33N 42°43' W 080°06'  

Dump ship's entire track history